createdAt,value
2022-11-15T00:00:45.997Z,6.03
2022-11-15T00:06:06.285Z,6.53
2022-11-15T00:11:26.389Z,7.10
2022-11-15T00:16:46.535Z,6.73
2022-11-15T00:22:06.626Z,8.20
2022-11-15T00:27:26.767Z,6.97
2022-11-15T00:32:46.835Z,6.23
2022-11-15T00:38:06.828Z,7.07
2022-11-15T00:43:26.895Z,6.13
2022-11-15T00:48:47.045Z,6.63
2022-11-15T00:54:07.293Z,7.17
2022-11-15T00:59:27.645Z,6.00
2022-11-15T01:04:47.766Z,6.43
2022-11-15T01:10:08.009Z,5.57
2022-11-15T01:15:28.066Z,6.07
2022-11-15T01:20:48.251Z,6.40
2022-11-15T01:26:08.379Z,6.07
2022-11-15T01:31:28.895Z,5.97
2022-11-15T01:36:49.088Z,5.77
2022-11-15T01:42:09.247Z,5.60
2022-11-15T01:47:29.484Z,5.47
2022-11-15T01:52:49.749Z,5.17
2022-11-15T01:58:09.831Z,6.00
2022-11-15T02:03:30.276Z,5.17
2022-11-15T02:08:50.739Z,5.53
2022-11-15T02:14:11.513Z,5.07
2022-11-15T02:19:31.603Z,5.37
2022-11-15T02:24:51.837Z,5.07
2022-11-15T02:30:11.953Z,4.97
2022-11-15T02:35:32.155Z,4.40
2022-11-15T02:40:52.214Z,5.20
2022-11-15T02:46:12.515Z,5.30
2022-11-15T02:51:32.742Z,5.10
2022-11-15T02:56:52.835Z,5.23
2022-11-15T03:02:12.868Z,5.07
2022-11-15T03:07:33.038Z,4.80
2022-11-15T03:12:53.084Z,4.87
2022-11-15T03:18:13.261Z,4.87
2022-11-15T03:23:33.759Z,4.83
2022-11-15T03:28:54.134Z,5.00
2022-11-15T03:34:14.326Z,3.83
2022-11-15T03:39:34.519Z,4.37
2022-11-15T03:44:54.649Z,4.60
2022-11-15T03:50:14.663Z,4.33
2022-11-15T03:55:34.722Z,4.60
2022-11-15T04:00:54.732Z,4.60
2022-11-15T04:06:14.860Z,4.50
2022-11-15T04:11:34.888Z,4.17
2022-11-15T04:16:55.179Z,4.80
2022-11-15T04:22:15.259Z,3.90
2022-11-15T04:27:35.554Z,3.90
2022-11-15T04:32:55.638Z,5.27
2022-11-15T04:38:15.941Z,4.30
2022-11-15T04:43:36.231Z,3.70
2022-11-15T04:48:59.030Z,4.30
2022-11-15T04:54:19.291Z,4.67
2022-11-15T04:59:39.425Z,3.83
2022-11-15T05:04:59.736Z,3.70
2022-11-15T05:10:19.849Z,3.97
2022-11-15T05:15:39.960Z,4.20
2022-11-15T05:21:00.093Z,3.73
2022-11-15T05:26:20.114Z,3.60
2022-11-15T05:31:40.351Z,3.73
2022-11-15T05:37:00.461Z,4.03
2022-11-15T05:42:20.715Z,4.27
2022-11-15T05:47:40.846Z,4.57
2022-11-15T05:53:05.088Z,4.30
2022-11-15T05:58:25.383Z,3.17
2022-11-15T06:03:45.338Z,3.80
2022-11-15T06:09:05.379Z,4.70
2022-11-15T06:14:25.561Z,3.83
2022-11-15T06:19:45.654Z,3.97
2022-11-15T06:25:05.938Z,3.20
2022-11-15T06:30:25.937Z,3.43
2022-11-15T06:35:46.178Z,3.67
2022-11-15T06:41:06.356Z,4.10
2022-11-15T06:46:26.439Z,3.57
2022-11-15T06:51:46.635Z,3.67
2022-11-15T06:57:06.743Z,3.60
2022-11-15T07:02:27.085Z,3.23
2022-11-15T07:07:47.162Z,3.90
2022-11-15T07:13:07.396Z,3.27
2022-11-15T07:18:27.532Z,3.63
2022-11-15T07:23:47.642Z,3.87
2022-11-15T07:29:07.691Z,3.13
2022-11-15T07:34:27.884Z,3.63
2022-11-15T07:39:48.045Z,3.20
2022-11-15T07:45:08.179Z,3.17
2022-11-15T07:50:28.430Z,3.50
2022-11-15T07:55:48.383Z,3.53
2022-11-15T08:01:08.767Z,3.33
2022-11-15T08:06:28.679Z,3.03
2022-11-15T08:11:50.204Z,3.00
2022-11-15T08:17:10.189Z,3.07
2022-11-15T08:22:30.393Z,3.17
2022-11-15T08:27:50.484Z,2.93
2022-11-15T08:33:10.607Z,3.03
2022-11-15T08:38:31.251Z,3.23
2022-11-15T08:43:51.381Z,3.47
2022-11-15T08:49:11.480Z,3.37
2022-11-15T08:54:31.666Z,2.90
2022-11-15T08:59:51.855Z,2.93
2022-11-15T09:05:12.165Z,3.23
2022-11-15T09:10:32.329Z,3.10
2022-11-15T09:15:52.586Z,3.20
2022-11-15T09:21:12.629Z,3.70
2022-11-15T09:26:32.682Z,3.30
2022-11-15T09:31:52.821Z,2.80
2022-11-15T09:37:12.991Z,2.90
2022-11-15T09:42:33.183Z,3.00
2022-11-15T09:47:53.243Z,2.97
2022-11-15T09:53:13.291Z,2.60
2022-11-15T09:58:33.721Z,2.50
2022-11-15T10:03:54.150Z,2.73
2022-11-15T10:09:14.283Z,3.27
2022-11-15T10:14:34.432Z,2.93
2022-11-15T10:19:54.492Z,2.60
2022-11-15T10:25:14.628Z,2.17
2022-11-15T10:30:34.898Z,2.97
2022-11-15T10:35:54.901Z,3.07
2022-11-15T10:41:15.116Z,2.23
2022-11-15T10:46:50.367Z,2.57
2022-11-15T10:52:10.632Z,2.70
2022-11-15T10:57:30.765Z,2.50
2022-11-15T11:02:51.145Z,1.80
2022-11-15T11:08:11.150Z,2.30
2022-11-15T11:13:31.465Z,2.10
2022-11-15T11:18:51.501Z,3.90
2022-11-15T11:24:11.662Z,2.93
2022-11-15T11:29:31.691Z,3.60
2022-11-15T11:34:51.915Z,2.60
2022-11-15T11:40:11.974Z,2.37
2022-11-15T11:45:32.306Z,2.13
2022-11-15T11:50:52.352Z,2.50
2022-11-15T11:56:12.512Z,3.13
2022-11-15T12:01:32.786Z,2.03
2022-11-15T12:06:52.670Z,1.93
2022-11-15T12:12:12.735Z,3.53
2022-11-15T12:17:32.940Z,2.90
2022-11-15T12:22:52.957Z,1.97
2022-11-15T12:28:13.090Z,2.00
2022-11-15T12:33:33.277Z,2.77
2022-11-15T12:38:53.400Z,4.17
2022-11-15T12:44:13.473Z,2.17
2022-11-15T12:49:33.575Z,1.83
2022-11-15T12:54:53.708Z,1.80
2022-11-15T13:00:13.919Z,2.40
2022-11-15T13:05:34.150Z,1.70
2022-11-15T13:10:54.369Z,1.90
2022-11-15T13:16:14.611Z,2.20
2022-11-15T13:21:34.845Z,2.03
2022-11-15T13:26:54.958Z,1.90
2022-11-15T13:32:15.133Z,4.90
2022-11-15T13:37:35.222Z,1.60
2022-11-15T13:42:55.320Z,1.70
2022-11-15T13:48:15.453Z,1.87
2022-11-15T13:53:35.637Z,3.73
2022-11-15T13:58:55.852Z,1.93
2022-11-15T14:04:16.043Z,1.67
2022-11-15T14:09:36.126Z,2.00
2022-11-15T14:14:56.300Z,3.03
2022-11-15T14:20:16.382Z,2.60
2022-11-15T14:25:36.642Z,1.60
2022-11-15T14:30:56.926Z,2.27
2022-11-15T14:36:16.979Z,3.87
2022-11-15T14:41:37.061Z,2.10
2022-11-15T14:46:57.242Z,1.60
2022-11-15T14:52:17.359Z,2.27
2022-11-15T14:57:37.501Z,1.80
2022-11-15T15:02:57.679Z,2.20
2022-11-15T15:08:17.722Z,2.00
2022-11-15T15:13:37.858Z,2.00
2022-11-15T15:18:57.951Z,1.80
2022-11-15T15:24:18.127Z,1.47
2022-11-15T15:29:38.146Z,4.10
2022-11-15T15:34:58.296Z,1.60
2022-11-15T15:40:18.338Z,1.93
2022-11-15T15:45:38.636Z,1.37
2022-11-15T15:50:58.653Z,1.47
2022-11-15T15:56:18.944Z,1.47
2022-11-15T16:01:39.148Z,1.70
2022-11-15T16:06:59.464Z,1.60
2022-11-15T16:12:19.430Z,2.50
2022-11-15T16:17:39.734Z,1.93
2022-11-15T16:23:03.099Z,1.40
2022-11-15T16:28:27.008Z,1.80
2022-11-15T16:33:47.303Z,1.50
2022-11-15T16:39:07.428Z,1.83
2022-11-15T16:44:27.585Z,1.53
2022-11-15T16:49:47.596Z,1.33
2022-11-15T16:55:07.793Z,1.80
2022-11-15T17:00:27.919Z,1.60
2022-11-15T17:05:48.083Z,2.10
2022-11-15T17:11:08.238Z,1.63
2022-11-15T17:16:28.502Z,1.60
2022-11-15T17:21:48.676Z,2.10
2022-11-15T17:27:08.872Z,1.43
2022-11-15T17:32:29.062Z,2.00
2022-11-15T17:37:49.118Z,2.10
2022-11-15T17:43:09.198Z,1.77
2022-11-15T17:48:29.426Z,1.70
2022-11-15T17:53:49.409Z,2.03
2022-11-15T17:59:14.848Z,1.70
2022-11-15T18:04:37.178Z,1.37
2022-11-15T18:09:57.431Z,1.50
2022-11-15T18:15:17.583Z,1.60
2022-11-15T18:20:37.722Z,1.50
2022-11-15T18:25:57.906Z,1.50
2022-11-15T18:31:18.114Z,1.70
2022-11-15T18:36:38.176Z,1.63
2022-11-15T18:41:58.362Z,1.43
2022-11-15T18:47:18.417Z,2.13
2022-11-15T18:52:38.504Z,1.60
2022-11-15T18:57:58.646Z,1.87
2022-11-15T19:03:23.586Z,1.80
2022-11-15T19:08:44.631Z,1.80
2022-11-15T19:14:04.727Z,2.27
2022-11-15T19:19:24.890Z,1.80
2022-11-15T19:24:45.043Z,2.93
2022-11-15T19:30:05.279Z,2.00
2022-11-15T19:35:25.343Z,1.87
2022-11-15T19:40:45.559Z,1.77
2022-11-15T19:46:05.611Z,1.73
2022-11-15T19:51:25.682Z,1.40
2022-11-15T19:56:45.867Z,1.93
2022-11-15T20:02:06.064Z,1.70
2022-11-15T20:07:26.073Z,1.70
2022-11-15T20:12:47.089Z,2.00
2022-11-15T20:18:07.211Z,2.00
2022-11-15T20:23:27.466Z,2.23
2022-11-15T20:28:47.573Z,2.23
2022-11-15T20:34:07.734Z,2.13
2022-11-15T20:39:27.742Z,2.10
2022-11-15T20:44:48.120Z,2.03
2022-11-15T20:50:35.280Z,2.37
2022-11-15T20:55:48.038Z,1.70
2022-11-15T21:01:08.158Z,2.30
2022-11-15T21:06:28.281Z,2.10
2022-11-15T21:11:48.315Z,1.97
2022-11-15T21:17:08.587Z,2.23
2022-11-15T21:22:28.678Z,2.43
2022-11-15T21:27:48.797Z,2.20
2022-11-15T21:33:08.791Z,1.90
2022-11-15T21:38:29.106Z,2.07
2022-11-15T21:43:49.136Z,1.67
2022-11-15T21:49:09.385Z,1.90
2022-11-15T21:54:29.371Z,2.13
2022-11-15T21:59:49.430Z,2.10
2022-11-15T22:05:09.498Z,2.70
2022-11-15T22:10:29.627Z,3.37
2022-11-15T22:15:49.653Z,2.17
2022-11-15T22:21:09.823Z,2.33
2022-11-15T22:26:29.874Z,1.77
2022-11-15T22:31:50.182Z,1.87
2022-11-15T22:37:25.627Z,2.33
2022-11-15T22:42:45.763Z,1.50
2022-11-15T22:48:05.846Z,1.70
2022-11-15T22:53:25.958Z,1.83
2022-11-15T22:58:46.123Z,2.10
2022-11-15T23:04:06.386Z,2.70
2022-11-15T23:09:26.302Z,1.70
2022-11-15T23:14:46.440Z,2.60
2022-11-15T23:20:22.457Z,2.37
2022-11-15T23:25:46.443Z,2.67
2022-11-15T23:31:06.477Z,1.70
2022-11-15T23:36:26.720Z,3.20
2022-11-15T23:41:46.897Z,1.70
2022-11-15T23:47:07.150Z,2.13
2022-11-15T23:52:27.186Z,2.60
2022-11-15T23:57:47.440Z,1.80
